Time;durP1;ratioP1;P1;durP2;ratioP2;P2;SDS_P1;SDS_P2;PMS_P1;PMS_P2;Temp;Humidity;BMP_temperature;BMP_pressure;BME280_temperature;BME280_humidity;BME280_pressure;Samples;Min_cycle;Max_cycle;Signal;HPM_P1;HPM_P2
2021/10/01 00:01:09;;;;;;;6.07;4.40;;;7.40;99.90;;;;;;5070188;28;20450;-63
2021/10/01 00:03:36;;;;;;;5.23;4.33;;;7.40;99.90;;;;;;5069564;28;20443;-63
2021/10/01 00:06:03;;;;;;;6.50;4.70;;;7.40;99.90;;;;;;5070291;28;20569;-63
2021/10/01 00:08:30;;;;;;;6.13;4.53;;;7.30;99.90;;;;;;5070139;28;20543;-63
2021/10/01 00:10:58;;;;;;;4.90;3.47;;;7.30;99.90;;;;;;5069691;28;20462;-62
2021/10/01 00:13:25;;;;;;;7.20;4.10;;;7.20;99.90;;;;;;5068468;28;20463;-63
2021/10/01 00:15:52;;;;;;;4.80;4.27;;;7.20;99.90;;;;;;5069861;28;20439;-63
2021/10/01 00:18:20;;;;;;;6.77;4.57;;;7.20;99.90;;;;;;5070115;28;21040;-62
2021/10/01 00:20:47;;;;;;;6.63;4.00;;;7.20;99.90;;;;;;5070076;28;20454;-63
2021/10/01 00:23:14;;;;;;;9.67;5.57;;;7.20;99.90;;;;;;5068703;28;20447;-63
2021/10/01 00:25:41;;;;;;;4.80;3.67;;;7.30;99.90;;;;;;5069820;28;20859;-62
2021/10/01 00:28:08;;;;;;;5.53;3.63;;;7.20;99.90;;;;;;5067166;28;20473;-63
2021/10/01 00:30:35;;;;;;;4.20;3.73;;;7.20;99.90;;;;;;5069825;28;20859;-63
2021/10/01 00:33:02;;;;;;;6.90;3.60;;;7.20;99.90;;;;;;5068184;28;20447;-63
2021/10/01 00:35:31;;;;;;;5.70;3.90;;;7.20;99.90;;;;;;5070233;28;20447;-62
2021/10/01 00:37:59;;;;;;;4.67;3.60;;;7.20;99.90;;;;;;5069833;28;20471;-62
2021/10/01 00:40:26;;;;;;;5.80;3.70;;;7.10;99.90;;;;;;5072273;28;20546;-62
2021/10/01 00:42:53;;;;;;;4.30;3.50;;;7.10;99.90;;;;;;5072991;28;20873;-63
2021/10/01 00:45:20;;;;;;;4.57;3.50;;;7.10;99.90;;;;;;5074099;28;20571;-63
2021/10/01 00:47:46;;;;;;;5.27;3.17;;;7.00;99.90;;;;;;5074236;28;20473;-63
2021/10/01 00:50:14;;;;;;;5.80;3.43;;;7.00;99.90;;;;;;5074449;28;20478;-63
2021/10/01 00:52:43;;;;;;;4.60;3.00;;;7.00;99.90;;;;;;5072781;28;20443;-63
2021/10/01 00:55:09;;;;;;;4.87;3.03;;;7.00;99.90;;;;;;5074156;28;20530;-63
2021/10/01 00:57:36;;;;;;;5.57;3.10;;;6.90;99.90;;;;;;5073816;28;20469;-64
2021/10/01 01:00:06;;;;;;;5.23;3.60;;;7.00;99.90;;;;;;5074074;28;20449;-63
2021/10/01 01:02:33;;;;;;;5.00;3.47;;;7.00;99.90;;;;;;5072855;28;20458;-63
2021/10/01 01:05:00;;;;;;;6.20;3.43;;;7.00;99.90;;;;;;5073191;28;20925;-63
2021/10/01 01:07:37;;;;;;;3.60;2.87;;;6.90;99.90;;;;;;5073254;28;20470;-63
2021/10/01 01:10:14;;;;;;;4.77;3.27;;;6.80;99.90;;;;;;5073227;28;20450;-63
2021/10/01 01:12:49;;;;;;;5.00;3.47;;;6.80;99.90;;;;;;5072150;28;20496;-63
2021/10/01 01:15:19;;;;;;;5.23;3.43;;;6.80;99.90;;;;;;5073339;28;20438;-63
2021/10/01 01:17:51;;;;;;;4.33;3.27;;;6.80;99.90;;;;;;5073171;28;20462;-63
2021/10/01 01:20:23;;;;;;;4.80;3.70;;;6.70;99.90;;;;;;5073394;28;20824;-63
2021/10/01 01:23:03;;;;;;;4.17;2.90;;;6.70;99.90;;;;;;5071734;28;20442;-63
2021/10/01 01:25:54;;;;;;;3.43;3.07;;;6.80;99.90;;;;;;5072805;28;20490;-63
2021/10/01 01:28:35;;;;;;;6.10;4.97;;;6.80;99.90;;;;;;5072718;28;20466;-63
2021/10/01 01:31:08;;;;;;;5.17;3.83;;;6.80;99.90;;;;;;5073035;28;20442;-63
2021/10/01 01:33:40;;;;;;;5.33;3.80;;;6.90;99.90;;;;;;5071621;28;20443;-63
2021/10/01 01:36:13;;;;;;;8.40;4.50;;;6.90;99.90;;;;;;5073007;28;20439;-62
2021/10/01 01:38:45;;;;;;;5.60;3.70;;;6.90;99.90;;;;;;5072713;28;20466;-63
2021/10/01 01:41:14;;;;;;;5.80;4.37;;;6.80;99.90;;;;;;5072815;28;20470;-63
2021/10/01 01:43:42;;;;;;;6.30;4.47;;;6.80;99.90;;;;;;5071307;28;20451;-64
2021/10/01 01:46:10;;;;;;;6.27;4.57;;;6.90;99.90;;;;;;5072593;28;20531;-63
2021/10/01 01:48:39;;;;;;;5.90;4.83;;;6.90;99.90;;;;;;5072655;28;20462;-63
2021/10/01 01:51:08;;;;;;;6.20;5.20;;;7.00;99.90;;;;;;5071597;28;20482;-63
2021/10/01 01:53:36;;;;;;;5.70;4.60;;;6.90;99.90;;;;;;5071319;28;20453;-63
2021/10/01 01:56:03;;;;;;;9.43;4.90;;;6.90;99.90;;;;;;5072542;28;20889;-63
2021/10/01 01:58:30;;;;;;;8.00;4.70;;;6.80;99.90;;;;;;5072286;28;20470;-63
2021/10/01 02:00:57;;;;;;;5.90;3.70;;;6.80;99.90;;;;;;5072535;28;20494;-63
2021/10/01 02:03:25;;;;;;;7.10;4.17;;;6.70;99.90;;;;;;5071548;28;20447;-63
2021/10/01 02:05:57;;;;;;;7.20;4.60;;;6.70;99.90;;;;;;5072080;28;20605;-63
2021/10/01 02:08:24;;;;;;;7.67;4.07;;;6.60;99.90;;;;;;5072163;28;20550;-62
2021/10/01 02:10:52;;;;;;;5.33;4.20;;;6.60;99.90;;;;;;5071916;28;20459;-65
2021/10/01 02:13:20;;;;;;;9.00;5.67;;;6.50;99.90;;;;;;5070752;28;20477;-63
2021/10/01 02:15:51;;;;;;;5.00;3.80;;;6.40;99.90;;;;;;5071747;28;20981;-63
2021/10/01 02:18:21;;;;;;;4.47;3.50;;;6.40;99.90;;;;;;5071934;28;20466;-63
2021/10/01 02:20:50;;;;;;;5.53;4.00;;;6.40;99.90;;;;;;5071795;28;20453;-63
2021/10/01 02:23:18;;;;;;;5.17;3.63;;;6.40;99.90;;;;;;5070761;28;20442;-63
2021/10/01 02:28:36;;;;;;;7.60;4.13;;;6.40;99.90;;;;;;5071990;28;20574;-62
2021/10/01 02:31:06;;;;;;;4.60;3.20;;;6.40;99.90;;;;;;5071769;28;20450;-63
2021/10/01 02:33:40;;;;;;;4.50;3.50;;;6.40;99.90;;;;;;5071045;28;20449;-63
2021/10/01 02:36:07;;;;;;;4.20;3.53;;;6.40;99.90;;;;;;5071864;28;20498;-63
2021/10/01 02:38:36;;;;;;;4.17;3.43;;;6.40;99.90;;;;;;5071983;28;20604;-63
2021/10/01 02:41:03;;;;;;;5.10;3.50;;;6.40;99.90;;;;;;5071703;28;20457;-63
2021/10/01 02:43:30;;;;;;;4.80;3.13;;;6.30;99.90;;;;;;5070704;28;20443;-63
2021/10/01 02:45:57;;;;;;;4.17;3.40;;;6.30;99.90;;;;;;5071411;28;20490;-63
2021/10/01 02:48:23;;;;;;;4.57;3.20;;;6.30;99.90;;;;;;5071281;28;20700;-63
2021/10/01 02:50:57;;;;;;;6.37;3.53;;;6.30;99.90;;;;;;5071563;28;20443;-63
2021/10/01 02:53:30;;;;;;;5.17;3.07;;;6.30;99.90;;;;;;5070333;28;20871;-63
2021/10/01 02:56:04;;;;;;;5.60;2.90;;;6.20;99.90;;;;;;5071420;28;20443;-63
2021/10/01 02:58:36;;;;;;;6.30;3.70;;;6.30;99.90;;;;;;5071413;28;20553;-63
2021/10/01 03:01:05;;;;;;;4.27;3.47;;;6.20;99.90;;;;;;5071044;28;20458;-63
2021/10/01 03:03:36;;;;;;;5.50;3.13;;;6.20;99.90;;;;;;5070055;28;20824;-63
2021/10/01 03:06:05;;;;;;;3.83;2.83;;;6.10;99.90;;;;;;5070992;28;20573;-63
2021/10/01 03:08:34;;;;;;;4.80;2.57;;;6.20;99.90;;;;;;5071075;28;20464;-63
2021/10/01 03:11:10;;;;;;;4.30;3.33;;;6.20;99.90;;;;;;5071003;28;20840;-64
2021/10/01 03:13:38;;;;;;;4.63;3.57;;;6.20;99.90;;;;;;5070061;28;20430;-63
2021/10/01 03:16:05;;;;;;;6.13;3.60;;;6.20;99.90;;;;;;5071259;28;20439;-64
2021/10/01 03:18:34;;;;;;;3.87;3.13;;;6.20;99.90;;;;;;5071205;28;20554;-63
2021/10/01 03:21:02;;;;;;;7.63;3.70;;;6.20;99.90;;;;;;5071312;28;20443;-63
2021/10/01 03:23:29;;;;;;;4.20;3.33;;;6.10;99.90;;;;;;5070125;28;20439;-63
2021/10/01 03:25:56;;;;;;;8.23;4.63;;;6.00;99.90;;;;;;5071225;28;20487;-63
2021/10/01 03:28:25;;;;;;;4.70;3.43;;;6.00;99.90;;;;;;5070879;28;20478;-63
2021/10/01 03:30:52;;;;;;;6.00;3.40;;;6.00;99.90;;;;;;5071368;28;20447;-63
2021/10/01 03:33:23;;;;;;;7.27;3.20;;;6.00;99.90;;;;;;5069627;28;20445;-63
2021/10/01 03:35:50;;;;;;;6.47;3.47;;;6.00;99.90;;;;;;5070932;28;20439;-63
2021/10/01 03:38:18;;;;;;;4.70;3.67;;;5.90;99.90;;;;;;5070255;28;20983;-63
2021/10/01 03:40:47;;;;;;;5.30;3.40;;;5.90;99.90;;;;;;5070571;28;20462;-63
2021/10/01 03:43:15;;;;;;;3.33;2.93;;;6.00;99.90;;;;;;5069372;28;20537;-63
2021/10/01 03:45:44;;;;;;;6.03;3.90;;;6.00;99.90;;;;;;5070745;28;20883;-63
2021/10/01 03:48:11;;;;;;;6.30;4.00;;;6.00;99.90;;;;;;5070303;28;20462;-63
2021/10/01 03:50:38;;;;;;;4.70;3.67;;;6.00;99.90;;;;;;5070320;28;20439;-63
2021/10/01 03:53:05;;;;;;;6.23;3.00;;;6.00;99.90;;;;;;5068909;28;20490;-62
2021/10/01 03:55:32;;;;;;;3.63;3.07;;;5.90;99.90;;;;;;5070630;28;20445;-63
2021/10/01 03:57:59;;;;;;;6.30;3.77;;;5.90;99.90;;;;;;5070080;28;20463;-63
2021/10/01 04:00:26;;;;;;;4.43;2.93;;;5.90;99.90;;;;;;5070402;28;20534;-63
2021/10/01 04:02:54;;;;;;;4.43;3.33;;;5.90;99.90;;;;;;5069292;28;20504;-64
2021/10/01 04:05:21;;;;;;;5.10;3.53;;;6.00;99.90;;;;;;5069927;28;20558;-63
2021/10/01 04:07:48;;;;;;;4.80;3.33;;;5.90;99.90;;;;;;5070297;28;20467;-68
2021/10/01 04:10:15;;;;;;;6.70;3.37;;;6.00;99.90;;;;;;5069781;28;20546;-63
2021/10/01 04:12:44;;;;;;;4.70;3.40;;;6.00;99.90;;;;;;5068942;28;20535;-63
2021/10/01 04:15:11;;;;;;;4.70;3.73;;;5.90;99.90;;;;;;5069339;28;20975;-64
2021/10/01 04:17:38;;;;;;;4.93;3.30;;;6.00;99.90;;;;;;5070023;28;20473;-63
2021/10/01 04:20:08;;;;;;;4.13;3.33;;;5.90;99.90;;;;;;5069761;28;20849;-64
2021/10/01 04:22:35;;;;;;;5.27;3.77;;;5.90;99.90;;;;;;5069481;28;20485;-63
2021/10/01 04:25:02;;;;;;;4.37;3.60;;;5.90;99.90;;;;;;5069456;28;20443;-63
2021/10/01 04:27:28;;;;;;;3.70;2.90;;;5.80;99.90;;;;;;5069970;28;21004;-63
2021/10/01 04:29:57;;;;;;;6.33;3.47;;;5.80;99.90;;;;;;5070085;28;20447;-63
2021/10/01 04:32:24;;;;;;;5.57;4.17;;;5.90;99.90;;;;;;5069304;28;20463;-63
2021/10/01 04:34:59;;;;;;;6.00;4.07;;;5.80;99.90;;;;;;5069252;28;20500;-62
2021/10/01 04:37:28;;;;;;;9.20;4.23;;;5.70;99.90;;;;;;5070317;28;21152;-62
2021/10/01 04:39:55;;;;;;;5.80;3.47;;;5.70;99.90;;;;;;5070022;28;20981;-62
2021/10/01 04:42:23;;;;;;;7.83;4.13;;;5.70;99.90;;;;;;5069530;28;20442;-62
2021/10/01 04:44:50;;;;;;;7.93;3.73;;;5.80;99.90;;;;;;5069603;28;20953;-62
2021/10/01 04:47:16;;;;;;;4.73;3.50;;;5.70;99.90;;;;;;5069587;28;20487;-62
2021/10/01 04:49:43;;;;;;;5.63;3.40;;;5.70;99.90;;;;;;5069777;28;20459;-62
2021/10/01 04:52:10;;;;;;;6.83;3.63;;;5.70;99.90;;;;;;5066414;28;20439;-63
2021/10/01 04:54:39;;;;;;;5.10;3.20;;;5.70;99.90;;;;;;5068693;28;20466;-62
2021/10/01 04:57:07;;;;;;;9.40;3.60;;;5.60;99.90;;;;;;5068912;28;20461;-61
2021/10/01 04:59:34;;;;;;;7.40;3.70;;;5.60;99.90;;;;;;5069508;28;20813;-63
2021/10/01 05:02:01;;;;;;;5.33;3.87;;;5.60;99.90;;;;;;5068798;28;20452;-62
2021/10/01 05:04:28;;;;;;;8.00;3.70;;;5.60;99.90;;;;;;5069230;28;20445;-63
2021/10/01 05:06:55;;;;;;;8.47;4.40;;;5.60;99.90;;;;;;5069325;28;20870;-62
2021/10/01 05:09:22;;;;;;;5.00;3.40;;;5.50;99.90;;;;;;5069546;28;20447;-63
2021/10/01 05:11:50;;;;;;;3.67;3.30;;;5.50;99.90;;;;;;5068782;28;20861;-62
2021/10/01 05:14:17;;;;;;;4.63;3.60;;;5.60;99.90;;;;;;5068545;28;20439;-62
2021/10/01 05:16:45;;;;;;;5.23;3.83;;;5.70;99.90;;;;;;5069422;28;20446;-63
2021/10/01 05:19:12;;;;;;;4.67;3.47;;;5.70;99.90;;;;;;5069535;28;20953;-63
2021/10/01 05:21:39;;;;;;;5.20;3.90;;;5.70;99.90;;;;;;5068354;28;20445;-63
2021/10/01 05:24:06;;;;;;;6.00;3.77;;;5.70;99.90;;;;;;5069214;28;20534;-63
2021/10/01 05:26:33;;;;;;;10.20;4.33;;;5.60;99.90;;;;;;5070919;28;20474;-63
2021/10/01 05:29:01;;;;;;;6.30;3.80;;;5.50;99.90;;;;;;5071658;28;20446;-63
2021/10/01 05:31:29;;;;;;;6.93;4.13;;;5.50;99.90;;;;;;5072084;28;20528;-63
2021/10/01 05:33:56;;;;;;;6.30;3.90;;;5.50;99.90;;;;;;5072301;28;20804;-63
2021/10/01 05:36:23;;;;;;;5.60;3.70;;;5.60;99.90;;;;;;5072859;28;20455;-63
2021/10/01 05:38:50;;;;;;;7.33;3.90;;;5.60;99.90;;;;;;5072315;28;20916;-63
2021/10/01 05:41:17;;;;;;;6.67;3.80;;;5.60;99.90;;;;;;5072244;28;20457;-63
2021/10/01 05:43:44;;;;;;;5.33;4.33;;;5.60;99.90;;;;;;5071918;28;20454;-63
2021/10/01 05:46:13;;;;;;;5.73;3.80;;;5.50;99.90;;;;;;5072664;28;20483;-63
2021/10/01 05:48:43;;;;;;;6.13;4.50;;;5.60;99.90;;;;;;5072391;28;20843;-63
2021/10/01 05:51:12;;;;;;;4.93;4.17;;;5.60;99.90;;;;;;5072422;28;20458;-63
2021/10/01 05:53:49;;;;;;;7.60;3.57;;;5.60;99.90;;;;;;5071009;28;20929;-63
2021/10/01 05:56:17;;;;;;;6.03;4.10;;;5.60;99.90;;;;;;5072784;28;20447;-63
2021/10/01 05:58:44;;;;;;;6.17;3.83;;;5.70;99.90;;;;;;5072549;28;20911;-63
2021/10/01 06:01:12;;;;;;;4.80;4.37;;;5.70;99.90;;;;;;5072682;28;20473;-63
2021/10/01 06:03:39;;;;;;;5.23;4.47;;;5.80;99.90;;;;;;5071121;28;20971;-63
2021/10/01 06:06:06;;;;;;;7.20;3.97;;;6.00;99.90;;;;;;5072252;28;20493;-64
2021/10/01 06:08:33;;;;;;;4.53;3.87;;;6.00;99.90;;;;;;5072391;28;20972;-63
2021/10/01 06:11:00;;;;;;;9.17;4.80;;;6.00;99.90;;;;;;5072014;28;20456;-64
2021/10/01 06:13:27;;;;;;;9.13;5.10;;;6.10;99.90;;;;;;5063122;28;20854;-64
2021/10/01 06:15:54;;;;;;;6.07;4.83;;;6.20;99.90;;;;;;5071113;28;20450;-64
2021/10/01 06:18:23;;;;;;;10.63;4.60;;;6.20;99.90;;;;;;5070735;28;20459;-64
2021/10/01 06:20:49;;;;;;;7.83;4.20;;;6.30;99.90;;;;;;5070942;28;20834;-64
2021/10/01 06:23:18;;;;;;;9.10;4.97;;;6.40;99.90;;;;;;5069651;28;20477;-63
2021/10/01 06:25:45;;;;;;;12.90;5.00;;;6.40;99.90;;;;;;5070510;28;20451;-64
2021/10/01 06:28:13;;;;;;;5.90;4.37;;;6.40;99.90;;;;;;5071035;28;20490;-64
2021/10/01 06:30:40;;;;;;;10.20;4.90;;;6.50;99.90;;;;;;5070702;28;20453;-64
2021/10/01 06:33:07;;;;;;;6.13;4.93;;;6.60;99.90;;;;;;5069644;28;20612;-63
2021/10/01 06:35:36;;;;;;;5.23;4.03;;;6.60;99.90;;;;;;5070504;28;20449;-63
2021/10/01 06:38:03;;;;;;;6.87;4.30;;;6.80;99.90;;;;;;5069697;28;20525;-64
2021/10/01 06:40:30;;;;;;;6.33;4.73;;;6.80;99.90;;;;;;5070420;28;20473;-64
2021/10/01 06:42:57;;;;;;;9.20;4.53;;;7.00;99.90;;;;;;5069461;28;20542;-64
2021/10/01 06:45:27;;;;;;;4.77;4.00;;;7.00;99.90;;;;;;5070221;28;20443;-63
2021/10/01 06:48:04;;;;;;;7.97;4.63;;;7.10;99.90;;;;;;5070081;28;20518;-64
2021/10/01 06:50:52;;;;;;;6.43;4.40;;;7.20;99.90;;;;;;5070419;28;20451;-63
2021/10/01 07:23:54;;;;;;;5.37;4.87;;;8.50;99.90;;;;;;5046859;28;20428;-64
2021/10/01 08:19:16;;;;;;;6.10;3.37;;;11.70;99.90;;;;;;5063449;28;20501;-66
2021/10/01 08:21:43;;;;;;;6.00;3.00;;;11.90;99.90;;;;;;5068908;28;20562;-66
2021/10/01 08:24:09;;;;;;;3.93;2.77;;;12.10;99.90;;;;;;5069813;28;20442;-66
2021/10/01 08:26:36;;;;;;;3.93;3.10;;;12.20;99.90;;;;;;5070157;28;20479;-66
2021/10/01 08:29:04;;;;;;;5.73;2.80;;;12.30;99.90;;;;;;5069963;28;20789;-66
2021/10/01 08:31:32;;;;;;;4.30;2.40;;;12.50;99.90;;;;;;5062705;28;20444;-65
2021/10/01 08:33:59;;;;;;;4.20;2.73;;;12.60;99.90;;;;;;5052528;28;20448;-66
2021/10/01 08:36:26;;;;;;;3.97;2.60;;;12.80;99.90;;;;;;5049996;28;20463;-65
2021/10/01 08:38:53;;;;;;;4.13;2.63;;;13.00;99.90;;;;;;5055523;28;20479;-66
2021/10/01 08:41:22;;;;;;;11.73;3.47;;;13.10;99.90;;;;;;5066234;28;20533;-65
2021/10/01 08:43:48;;;;;;;4.07;3.10;;;13.20;99.90;;;;;;5068539;28;20451;-65
2021/10/01 08:46:17;;;;;;;4.60;2.67;;;13.30;99.90;;;;;;5069334;28;20526;-66
2021/10/01 08:48:46;;;;;;;3.90;2.50;;;13.50;99.90;;;;;;5062759;28;20841;-66
2021/10/01 08:51:15;;;;;;;4.77;2.47;;;13.70;99.90;;;;;;5069881;28;20947;-66
2021/10/01 08:53:43;;;;;;;2.97;2.23;;;13.90;99.90;;;;;;5069050;28;20851;-66
2021/10/01 08:56:10;;;;;;;3.90;2.43;;;14.20;99.90;;;;;;5069596;28;20552;-65
2021/10/01 08:58:36;;;;;;;3.20;2.27;;;14.30;99.90;;;;;;5069085;28;20473;-66
2021/10/01 09:01:05;;;;;;;4.80;2.10;;;14.50;99.90;;;;;;5063167;28;20456;-65
2021/10/01 09:03:32;;;;;;;5.53;2.40;;;14.60;99.90;;;;;;5066905;28;20442;-65
2021/10/01 09:06:00;;;;;;;4.83;2.20;;;14.80;99.90;;;;;;5073426;28;20973;-66
2021/10/01 09:08:29;;;;;;;5.80;2.70;;;15.10;99.90;;;;;;5066399;28;20483;-66
2021/10/01 09:11:01;;;;;;;3.40;2.20;;;15.40;99.90;;;;;;5078935;28;20458;-65
2021/10/01 09:13:29;;;;;;;4.47;2.43;;;15.70;99.90;;;;;;5068090;28;20461;-67
2021/10/01 09:16:01;;;;;;;3.30;2.00;;;16.00;99.90;;;;;;5067398;28;20479;-66
2021/10/01 09:18:29;;;;;;;3.90;2.90;;;16.30;99.90;;;;;;5065402;28;20514;-65
2021/10/01 09:21:09;;;;;;;5.30;2.20;;;16.50;99.90;;;;;;5069451;28;21041;-66
2021/10/01 09:23:42;;;;;;;5.93;2.43;;;16.90;99.90;;;;;;5064529;28;21067;-66
2021/10/01 09:26:12;;;;;;;4.20;2.00;;;17.30;99.90;;;;;;5066407;28;20440;-66
2021/10/01 09:28:47;;;;;;;5.00;2.33;;;17.50;99.90;;;;;;5056692;28;20491;-65
2021/10/01 09:31:42;;;;;;;6.07;2.07;;;17.80;99.90;;;;;;5051829;28;20841;-66
2021/10/01 09:34:11;;;;;;;3.07;1.80;;;18.20;99.90;;;;;;5051257;28;20483;-65
2021/10/01 09:36:41;;;;;;;4.63;2.30;;;18.50;99.90;;;;;;5051178;28;20448;-65
2021/10/01 09:39:09;;;;;;;4.30;2.10;;;18.60;99.90;;;;;;5051505;28;21101;-65
2021/10/01 09:41:37;;;;;;;3.90;2.50;;;18.70;99.90;;;;;;5050869;28;20543;-65
2021/10/01 09:44:10;;;;;;;3.87;2.03;;;18.90;99.90;;;;;;5051361;28;20439;-65
2021/10/01 09:46:40;;;;;;;3.20;1.97;;;19.10;99.90;;;;;;5051043;28;20444;-64
2021/10/01 09:49:08;;;;;;;5.00;2.40;;;19.50;99.90;;;;;;5051246;28;20444;-64
2021/10/01 09:51:36;;;;;;;3.57;2.00;;;19.80;99.90;;;;;;5050578;28;20456;-64
2021/10/01 09:54:15;;;;;;;3.50;2.00;;;20.10;99.90;;;;;;5051216;28;20487;-64
2021/10/01 09:56:42;;;;;;;4.97;2.20;;;20.40;99.30;;;;;;5051410;28;20931;-64
2021/10/01 09:59:12;;;;;;;7.30;1.97;;;20.60;99.60;;;;;;5051259;28;20446;-64
2021/10/01 10:01:58;;;;;;;3.33;2.10;;;20.40;98.60;;;;;;5050299;28;20452;-65
2021/10/01 10:04:26;;;;;;;3.53;1.60;;;20.50;98.70;;;;;;5050790;28;20447;-65
2021/10/01 10:06:53;;;;;;;3.10;1.83;;;20.90;98.00;;;;;;5051128;28;20491;-65
2021/10/01 10:09:33;;;;;;;4.90;2.43;;;21.20;97.90;;;;;;5050954;28;20447;-65
2021/10/01 10:12:00;;;;;;;6.20;2.83;;;21.70;96.50;;;;;;5049334;28;20443;-65
2021/10/01 10:14:27;;;;;;;4.03;2.37;;;22.00;96.50;;;;;;5049610;28;20448;-65
2021/10/01 10:16:58;;;;;;;4.10;2.23;;;22.40;96.30;;;;;;5058162;28;20546;-65
2021/10/01 10:19:30;;;;;;;3.90;1.83;;;22.60;96.10;;;;;;5068195;28;20501;-65
2021/10/01 10:21:58;;;;;;;6.13;2.20;;;23.10;95.20;;;;;;5065545;28;20447;-64
2021/10/01 10:24:25;;;;;;;3.80;1.97;;;23.60;94.30;;;;;;5066000;28;20450;-65
2021/10/01 10:26:57;;;;;;;3.30;1.80;;;23.90;93.30;;;;;;5067035;28;20539;-65
2021/10/01 10:29:24;;;;;;;3.43;1.77;;;24.30;92.90;;;;;;5068313;28;20451;-64
2021/10/01 10:31:52;;;;;;;3.60;2.07;;;24.50;91.50;;;;;;5070310;28;20469;-64
2021/10/01 10:34:23;;;;;;;3.30;1.73;;;24.40;91.50;;;;;;5070775;28;20541;-64
2021/10/01 10:36:51;;;;;;;3.30;1.93;;;24.40;90.80;;;;;;5071694;28;20447;-65
2021/10/01 10:39:37;;;;;;;3.50;2.10;;;23.70;90.50;;;;;;5071169;28;20469;-64
2021/10/01 10:42:14;;;;;;;3.40;1.70;;;24.10;92.00;;;;;;5069544;28;20827;-66
2021/10/01 10:44:50;;;;;;;4.33;1.90;;;24.70;90.70;;;;;;5070097;28;20447;-64
2021/10/01 10:47:44;;;;;;;3.30;1.90;;;25.20;90.60;;;;;;5069864;28;20470;-65
2021/10/01 10:50:37;;;;;;;3.90;2.00;;;25.60;87.00;;;;;;5070382;28;20435;-65
2021/10/01 10:53:19;;;;;;;4.00;2.00;;;25.90;85.40;;;;;;5068907;28;20451;-64
2021/10/01 10:56:12;;;;;;;5.60;2.10;;;25.80;85.30;;;;;;5069852;28;20446;-65
2021/10/01 10:58:46;;;;;;;3.17;1.90;;;25.90;83.30;;;;;;5070107;28;20566;-65
2021/10/01 11:01:37;;;;;;;5.23;2.10;;;26.20;82.40;;;;;;5069866;28;20495;-64
2021/10/01 11:04:38;;;;;;;3.47;1.70;;;26.30;81.80;;;;;;5063250;28;20827;-65
2021/10/01 11:07:07;;;;;;;3.37;2.30;;;26.20;80.70;;;;;;5061750;28;20546;-64
2021/10/01 11:09:35;;;;;;;2.90;2.00;;;26.20;81.90;;;;;;5071136;28;20500;-65
2021/10/01 11:12:21;;;;;;;6.10;2.07;;;26.80;79.00;;;;;;5064663;28;20471;-65
2021/10/01 11:15:27;;;;;;;3.93;1.93;;;27.30;77.20;;;;;;5049505;28;20440;-65
2021/10/01 11:18:14;;;;;;;4.93;2.30;;;27.90;76.60;;;;;;5049854;28;20474;-64
2021/10/01 11:20:42;;;;;;;3.53;1.70;;;28.70;73.60;;;;;;5049851;28;20505;-64
2021/10/01 11:23:19;;;;;;;3.20;1.83;;;29.00;71.90;;;;;;5048227;28;20578;-64
2021/10/01 11:25:48;;;;;;;5.03;1.93;;;29.60;69.60;;;;;;5049744;28;20922;-65
2021/10/01 11:28:15;;;;;;;3.93;1.87;;;29.50;70.00;;;;;;5053567;28;20488;-65
2021/10/01 11:30:50;;;;;;;3.77;1.50;;;29.70;67.20;;;;;;5059647;28;20807;-67
2021/10/01 11:33:19;;;;;;;5.80;1.87;;;29.90;67.90;;;;;;5055609;28;20863;-66
2021/10/01 11:35:48;;;;;;;3.90;1.77;;;30.10;63.20;;;;;;5059393;28;20945;-66
2021/10/01 11:38:24;;;;;;;4.40;1.73;;;30.60;65.50;;;;;;5057405;28;20477;-64
2021/10/01 11:41:08;;;;;;;2.50;1.50;;;31.00;62.50;;;;;;5065772;28;20439;-66
2021/10/01 11:43:45;;;;;;;3.37;1.50;;;31.40;58.70;;;;;;5056160;28;20973;-66
2021/10/01 11:46:19;;;;;;;2.73;1.33;;;31.70;58.20;;;;;;5067303;28;20455;-66
2021/10/01 11:48:47;;;;;;;4.20;1.50;;;31.50;58.40;;;;;;5054628;28;20610;-66
2021/10/01 11:51:14;;;;;;;4.10;1.30;;;31.30;59.10;;;;;;5059905;28;20483;-66
2021/10/01 11:53:41;;;;;;;2.47;1.33;;;31.90;56.90;;;;;;5055422;28;20966;-65
2021/10/01 11:56:09;;;;;;;2.53;1.10;;;32.00;56.20;;;;;;5061871;28;20527;-65
2021/10/01 11:58:37;;;;;;;3.07;1.40;;;31.90;53.40;;;;;;5068055;28;20463;-65
2021/10/01 12:01:11;;;;;;;3.40;1.10;;;32.10;53.70;;;;;;5068749;28;20435;-65
2021/10/01 12:03:49;;;;;;;2.43;1.30;;;32.10;55.00;;;;;;5063981;28;20546;-65
2021/10/01 12:06:20;;;;;;;3.20;1.20;;;32.70;52.80;;;;;;5066900;28;20445;-66
2021/10/01 12:08:54;;;;;;;3.10;1.23;;;32.90;50.60;;;;;;5065296;28;20514;-65
2021/10/01 12:11:25;;;;;;;2.50;0.97;;;33.50;51.30;;;;;;5061021;28;20463;-65
2021/10/01 12:13:52;;;;;;;2.93;1.20;;;34.00;48.80;;;;;;5063572;28;20473;-65
2021/10/01 12:16:19;;;;;;;2.20;1.20;;;32.50;48.60;;;;;;5062789;28;20518;-65
2021/10/01 12:18:54;;;;;;;3.60;1.10;;;30.50;50.00;;;;;;5059016;28;20466;-65
2021/10/01 12:21:23;;;;;;;4.37;1.20;;;30.10;52.30;;;;;;5063140;28;20447;-65
2021/10/01 12:23:52;;;;;;;2.70;1.10;;;31.40;53.50;;;;;;5068807;28;20449;-65
2021/10/01 12:26:25;;;;;;;2.70;1.20;;;32.60;49.30;;;;;;5067829;28;21015;-64
2021/10/01 12:29:05;;;;;;;3.70;1.27;;;33.00;48.60;;;;;;5062658;28;20570;-65
2021/10/01 12:31:36;;;;;;;4.30;1.20;;;33.60;47.80;;;;;;5061728;28;21039;-66
2021/10/01 12:34:07;;;;;;;2.10;1.00;;;34.20;45.30;;;;;;5068409;28;20449;-66
2021/10/01 12:36:36;;;;;;;2.10;1.00;;;34.70;43.70;;;;;;5067859;28;20449;-64
2021/10/01 12:39:04;;;;;;;2.80;0.90;;;35.10;43.90;;;;;;5064908;28;20902;-64
2021/10/01 12:41:31;;;;;;;2.97;0.93;;;35.40;44.40;;;;;;5066692;28;20906;-65
2021/10/01 12:44:00;;;;;;;4.43;1.40;;;35.40;43.40;;;;;;5068869;28;20443;-66
2021/10/01 12:46:46;;;;;;;3.23;0.97;;;35.40;42.60;;;;;;5064056;28;20456;-66
2021/10/01 12:49:18;;;;;;;3.60;1.47;;;35.40;41.00;;;;;;5066517;28;20928;-65
2021/10/01 12:51:46;;;;;;;2.60;1.10;;;35.10;41.60;;;;;;5058955;28;20451;-65
2021/10/01 12:54:24;;;;;;;2.40;1.17;;;34.50;44.20;;;;;;5067907;28;20554;-66
2021/10/01 12:57:13;;;;;;;2.57;1.10;;;34.80;43.40;;;;;;5068119;28;20580;-65
2021/10/01 12:59:42;;;;;;;2.53;1.10;;;35.00;43.40;;;;;;5068046;28;20526;-66
2021/10/01 13:02:11;;;;;;;3.00;1.30;;;34.80;42.70;;;;;;5060957;28;20454;-65
2021/10/01 13:04:50;;;;;;;2.73;1.50;;;34.80;43.00;;;;;;5064581;28;20467;-64
2021/10/01 13:07:28;;;;;;;2.63;1.50;;;34.10;42.40;;;;;;5066032;28;20466;-64
2021/10/01 13:09:56;;;;;;;2.53;1.30;;;33.50;40.90;;;;;;5056205;28;20448;-65
2021/10/01 13:12:31;;;;;;;2.23;1.10;;;32.90;43.90;;;;;;5059753;28;20457;-65
2021/10/01 13:15:32;;;;;;;3.07;1.17;;;31.70;43.90;;;;;;5058758;28;20512;-65
2021/10/01 13:18:10;;;;;;;3.60;1.57;;;29.70;46.20;;;;;;5047879;28;20467;-64
2021/10/01 13:20:41;;;;;;;2.77;1.50;;;28.20;48.10;;;;;;5059600;28;20545;-64
2021/10/01 13:23:11;;;;;;;3.17;1.43;;;26.50;50.10;;;;;;5057940;28;20538;-64
2021/10/01 13:25:44;;;;;;;4.20;1.13;;;25.10;52.20;;;;;;5057020;28;20459;-64
2021/10/01 13:28:11;;;;;;;3.10;1.33;;;24.40;54.80;;;;;;5060439;28;20491;-64
2021/10/01 13:30:38;;;;;;;3.00;1.30;;;24.00;58.80;;;;;;5063725;28;20534;-65
2021/10/01 13:33:06;;;;;;;4.70;1.90;;;23.90;55.80;;;;;;5063232;28;20451;-64
2021/10/01 13:35:34;;;;;;;4.23;1.60;;;23.70;59.10;;;;;;5063089;28;20905;-65
2021/10/01 13:38:02;;;;;;;3.27;1.30;;;23.70;59.30;;;;;;5066177;28;20467;-64
2021/10/01 13:40:29;;;;;;;3.40;1.80;;;23.70;58.20;;;;;;5061304;28;20461;-65
2021/10/01 13:42:55;;;;;;;2.60;1.30;;;23.70;58.70;;;;;;5066871;28;20446;-65
2021/10/01 13:45:22;;;;;;;2.37;1.20;;;23.70;63.10;;;;;;5062891;28;20459;-64
2021/10/01 13:47:49;;;;;;;2.70;1.40;;;23.70;62.50;;;;;;5058759;28;20454;-65
2021/10/01 13:50:16;;;;;;;3.63;2.27;;;23.50;59.30;;;;;;5065990;28;20957;-64
2021/10/01 13:52:43;;;;;;;4.30;2.67;;;23.40;58.60;;;;;;5070852;28;20529;-65
2021/10/01 13:55:14;;;;;;;12.87;6.23;;;23.30;60.00;;;;;;5057430;28;20443;-63
2021/10/01 13:57:42;;;;;;;2.57;1.50;;;23.40;59.00;;;;;;5068752;28;20461;-63
2021/10/01 14:00:12;;;;;;;4.33;1.53;;;23.40;58.70;;;;;;5072745;28;20500;-63
2021/10/01 14:02:41;;;;;;;2.67;1.33;;;23.30;63.80;;;;;;5068378;28;20451;-63
2021/10/01 14:05:10;;;;;;;3.50;1.70;;;23.40;62.00;;;;;;5065219;28;20443;-63
2021/10/01 14:07:38;;;;;;;2.87;1.80;;;23.40;64.40;;;;;;5072004;28;20899;-62
2021/10/01 14:10:06;;;;;;;2.70;1.30;;;23.40;62.30;;;;;;5068096;28;20480;-63
2021/10/01 14:12:35;;;;;;;3.40;1.70;;;23.40;63.20;;;;;;5065904;28;20454;-63
2021/10/01 14:15:02;;;;;;;5.80;2.30;;;23.20;61.70;;;;;;5061920;28;20479;-65
2021/10/01 14:17:29;;;;;;;3.03;1.50;;;23.30;64.00;;;;;;5065223;28;20475;-66
2021/10/01 14:19:56;;;;;;;5.10;2.00;;;23.30;66.50;;;;;;5069903;28;20447;-65
2021/10/01 14:22:23;;;;;;;2.67;1.70;;;23.30;67.50;;;;;;5062429;28;20949;-67
2021/10/01 14:24:50;;;;;;;3.10;1.80;;;23.40;69.10;;;;;;5068074;28;20465;-64
2021/10/01 14:27:17;;;;;;;3.67;2.03;;;23.50;69.40;;;;;;5065026;28;20553;-65
2021/10/01 14:29:46;;;;;;;3.37;1.90;;;23.30;67.70;;;;;;5058917;28;20500;-64
2021/10/01 14:32:13;;;;;;;5.70;2.27;;;23.30;69.30;;;;;;5061101;28;20530;-64
2021/10/01 14:34:40;;;;;;;4.40;2.20;;;23.30;68.90;;;;;;5067399;28;20497;-64